Time;durP1;ratioP1;P1;durP2;ratioP2;P2;SDS_P1;SDS_P2;PMS_P1;PMS_P2;Temp;Humidity;BMP_temperature;BMP_pressure;BME280_temperature;BME280_humidity;BME280_pressure;Samples;Min_cycle;Max_cycle;Signal;HPM_P1;HPM_P2
2022/01/13 00:00:13;;;;;;;3.10;0.57;;;25.40;99.90;;;;;;5061842;28;20048;-76
2022/01/13 00:02:42;;;;;;;2.10;0.63;;;25.40;99.90;;;;;;5070959;28;20028;-73
2022/01/13 00:05:10;;;;;;;2.60;0.63;;;25.50;99.90;;;;;;5070675;28;20469;-73
2022/01/13 00:07:37;;;;;;;2.72;0.60;;;25.50;99.90;;;;;;5070453;28;20416;-73
2022/01/13 00:10:06;;;;;;;4.38;1.23;;;25.60;99.90;;;;;;5070566;28;20488;-73
2022/01/13 00:12:39;;;;;;;5.35;1.00;;;25.50;99.90;;;;;;5070703;28;20370;-71
2022/01/13 00:15:10;;;;;;;5.35;1.30;;;25.50;99.90;;;;;;5071053;28;20047;-75
2022/01/13 00:20:34;;;;;;;5.22;1.52;;;25.70;99.90;;;;;;5071101;28;20031;-72
2022/01/13 00:25:52;;;;;;;6.93;1.98;;;25.80;99.90;;;;;;5070332;28;20535;-73
2022/01/13 00:28:21;;;;;;;6.43;3.22;;;25.90;99.90;;;;;;5070775;28;20380;-70
2022/01/13 00:30:53;;;;;;;3.28;1.17;;;26.00;99.90;;;;;;5070592;28;20060;-68
2022/01/13 00:33:24;;;;;;;6.72;2.75;;;26.10;99.90;;;;;;5070629;28;20032;-68
2022/01/13 00:35:54;;;;;;;7.38;1.88;;;26.30;99.90;;;;;;5070891;28;20032;-68
2022/01/13 00:38:21;;;;;;;4.80;1.45;;;26.30;99.90;;;;;;5073300;28;20029;-71
2022/01/13 00:40:49;;;;;;;4.07;0.75;;;26.30;99.90;;;;;;5073637;28;20048;-69
2022/01/13 00:43:16;;;;;;;5.43;1.02;;;26.30;99.90;;;;;;5073256;28;20031;-74
2022/01/13 00:45:46;;;;;;;1.92;0.70;;;26.20;99.90;;;;;;5072968;28;20031;-75
2022/01/13 00:48:13;;;;;;;3.22;0.80;;;26.20;99.90;;;;;;5072645;28;20021;-73
2022/01/13 00:50:40;;;;;;;8.65;1.77;;;26.20;99.90;;;;;;5070291;28;20021;-74
2022/01/13 00:53:08;;;;;;;6.40;1.52;;;26.10;99.90;;;;;;5071496;28;20389;-74
2022/01/13 00:58:34;;;;;;;5.13;1.20;;;25.70;99.90;;;;;;5057434;28;20121;-74
2022/01/13 01:01:03;;;;;;;5.25;1.20;;;25.60;99.90;;;;;;5070178;28;20442;-70
2022/01/13 01:03:31;;;;;;;4.00;1.10;;;25.40;99.90;;;;;;5072781;28;20025;-73
2022/01/13 01:06:03;;;;;;;6.07;1.15;;;25.30;99.90;;;;;;5072461;28;20021;-73
2022/01/13 01:08:31;;;;;;;;;;;25.10;99.90;;;;;;5073179;28;20024;-69
2022/01/13 01:11:01;;;;;;;12.93;3.42;;;25.10;99.90;;;;;;5072699;28;20371;-72
2022/01/13 01:13:31;;;;;;;2.90;1.02;;;25.10;99.90;;;;;;5072316;28;20021;-70
2022/01/13 01:16:01;;;;;;;6.55;1.20;;;25.00;99.90;;;;;;5072265;28;20016;-65
2022/01/13 01:18:38;;;;;;;6.70;2.70;;;24.80;99.90;;;;;;5072652;28;20430;-71
2022/01/13 01:24:41;;;;;;;17.15;6.05;;;24.50;99.90;;;;;;5070099;28;20017;-72
2022/01/13 01:29:17;;;;;;;9.88;3.90;;;24.00;99.90;;;;;;5090088;28;20020;-72
2022/01/13 01:31:51;;;;;;;4.47;1.23;;;23.80;99.90;;;;;;5069846;28;20405;-70
2022/01/13 01:37:14;;;;;;;7.20;2.10;;;23.60;99.90;;;;;;5056586;28;20067;-71
2022/01/13 01:39:43;;;;;;;10.25;2.55;;;23.20;99.90;;;;;;5072298;28;20051;-69
2022/01/13 01:42:10;;;;;;;13.43;3.10;;;23.10;99.90;;;;;;5071212;28;20024;-70
2022/01/13 01:44:43;;;;;;;9.80;2.70;;;22.90;99.90;;;;;;5071317;28;20056;-69
2022/01/13 01:47:16;;;;;;;7.47;2.35;;;22.60;99.90;;;;;;5071387;28;20036;-69
2022/01/13 01:49:47;;;;;;;9.13;2.47;;;22.50;99.90;;;;;;5068020;28;20017;-69
2022/01/13 01:52:17;;;;;;;8.40;2.88;;;22.40;99.90;;;;;;5071348;28;20020;-68
2022/01/13 01:54:45;;;;;;;10.45;3.47;;;22.40;99.90;;;;;;5072499;28;20044;-67
2022/01/13 01:57:14;;;;;;;6.05;2.13;;;22.40;99.90;;;;;;5072355;28;20028;-68
2022/01/13 01:59:43;;;;;;;8.88;2.70;;;22.40;99.90;;;;;;5072616;28;20028;-69
2022/01/13 02:02:14;;;;;;;4.35;2.15;;;22.50;99.90;;;;;;5071979;28;20039;-68
2022/01/13 02:04:43;;;;;;;5.70;1.40;;;22.60;99.90;;;;;;5070980;28;20031;-70
2022/01/13 02:07:12;;;;;;;5.90;2.53;;;22.40;99.90;;;;;;5071380;28;20055;-67
2022/01/13 02:09:43;;;;;;;7.35;2.15;;;22.50;99.90;;;;;;5070498;28;20440;-69
2022/01/13 02:12:19;;;;;;;7.45;2.40;;;22.60;99.90;;;;;;5070499;28;20017;-69
2022/01/13 02:15:33;;;;;;;5.47;1.85;;;22.70;99.90;;;;;;5068862;28;20032;-70
2022/01/13 02:17:40;;;;;;;6.53;1.50;;;22.70;99.90;;;;;;5064020;28;20385;-69
2022/01/13 02:20:18;;;;;;;3.83;1.38;;;22.60;99.90;;;;;;5069040;28;20030;-66
2022/01/13 02:22:45;;;;;;;4.50;1.40;;;22.50;99.90;;;;;;5068707;28;20116;-65
2022/01/13 02:25:18;;;;;;;2.83;1.08;;;22.60;99.90;;;;;;5071166;28;20024;-68
2022/01/13 02:27:44;;;;;;;;;;;22.70;99.90;;;;;;5068649;28;20021;-69
2022/01/13 02:30:12;;;;;;;6.38;1.70;;;22.70;99.90;;;;;;5070257;28;19908;-68
2022/01/13 02:32:40;;;;;;;5.45;1.52;;;22.60;99.90;;;;;;5071286;28;20054;-67
2022/01/13 02:35:08;;;;;;;3.53;1.10;;;22.70;99.90;;;;;;5079826;28;20491;-67
2022/01/13 02:37:35;;;;;;;5.32;1.55;;;22.70;99.90;;;;;;5077937;28;20503;-66
2022/01/13 02:40:03;;;;;;;5.35;1.33;;;22.70;99.90;;;;;;5080787;28;20028;-67
2022/01/13 02:42:30;;;;;;;4.15;1.40;;;22.80;99.90;;;;;;5081542;28;20012;-69
2022/01/13 02:45:06;;;;;;;6.28;1.15;;;22.70;99.90;;;;;;5082062;28;20422;-70
2022/01/13 02:48:27;;;;;;;5.60;1.88;;;22.70;99.90;;;;;;5080442;28;20108;-72
2022/01/13 02:50:25;;;;;;;6.13;1.83;;;22.60;99.90;;;;;;5076726;28;20103;-68
2022/01/13 02:52:52;;;;;;;6.28;1.77;;;22.70;99.90;;;;;;5080689;28;20047;-70
2022/01/13 02:55:20;;;;;;;4.35;1.40;;;22.90;99.90;;;;;;5071311;28;20028;-70
2022/01/13 02:57:48;;;;;;;5.15;1.30;;;23.00;99.90;;;;;;5070525;28;20079;-69
2022/01/13 03:00:17;;;;;;;5.15;1.10;;;23.00;99.90;;;;;;5068352;28;20020;-69
2022/01/13 03:02:47;;;;;;;8.38;2.10;;;23.10;99.90;;;;;;5066850;28;20024;-71
2022/01/13 03:05:15;;;;;;;3.63;1.13;;;23.40;99.90;;;;;;5071336;28;20078;-72
2022/01/13 03:07:43;;;;;;;4.93;1.10;;;23.60;99.90;;;;;;5071404;28;20532;-69
2022/01/13 03:10:12;;;;;;;4.75;1.23;;;23.80;99.90;;;;;;5072154;28;20431;-71
2022/01/13 03:12:44;;;;;;;5.85;1.27;;;23.90;99.90;;;;;;5082559;28;20081;-73
2022/01/13 03:15:11;;;;;;;4.22;1.23;;;24.00;99.90;;;;;;5078122;28;20445;-73
2022/01/13 03:17:39;;;;;;;6.80;1.00;;;24.20;99.90;;;;;;5084903;28;20119;-71
2022/01/13 03:20:07;;;;;;;5.57;1.20;;;24.20;99.90;;;;;;5081659;28;20161;-65
2022/01/13 03:22:34;;;;;;;4.40;1.00;;;24.20;99.90;;;;;;5080353;28;20023;-69
2022/01/13 03:25:03;;;;;;;6.35;1.20;;;24.20;99.90;;;;;;5080221;28;20013;-65
2022/01/13 03:27:34;;;;;;;5.35;1.15;;;24.20;99.90;;;;;;5076075;28;20009;-69
2022/01/13 03:30:07;;;;;;;2.88;1.05;;;24.50;99.90;;;;;;5079243;28;20690;-65
2022/01/13 03:32:36;;;;;;;9.23;1.30;;;24.70;99.90;;;;;;5078447;28;20036;-66
2022/01/13 03:35:05;;;;;;;7.38;1.70;;;25.00;99.90;;;;;;5079628;28;20034;-68
2022/01/13 03:37:32;;;;;;;4.20;1.00;;;25.30;99.90;;;;;;5076403;28;20489;-69
2022/01/13 03:40:00;;;;;;;2.58;0.73;;;25.80;99.90;;;;;;5079281;28;20028;-66
2022/01/13 03:42:27;;;;;;;5.80;1.00;;;26.00;99.90;;;;;;5078577;28;20516;-66
2022/01/13 03:44:55;;;;;;;5.75;1.42;;;26.20;99.90;;;;;;5073935;28;20021;-72
2022/01/13 03:47:22;;;;;;;5.03;1.75;;;26.40;99.90;;;;;;5076196;28;20035;-72
2022/01/13 03:49:50;;;;;;;4.43;1.25;;;26.40;99.90;;;;;;5075998;28;20016;-71
2022/01/13 03:52:24;;;;;;;5.22;1.23;;;26.20;99.90;;;;;;5084582;28;20025;-71
2022/01/13 03:55:12;;;;;;;4.63;0.90;;;25.90;99.90;;;;;;5076428;28;20024;-71
2022/01/13 03:57:57;;;;;;;9.65;1.52;;;25.70;99.90;;;;;;5069576;28;20103;-72
2022/01/13 04:00:45;;;;;;;7.05;1.90;;;25.40;99.90;;;;;;5073402;28;20086;-71
2022/01/13 04:03:12;;;;;;;4.28;1.02;;;25.10;99.90;;;;;;5074803;28;20016;-73
2022/01/13 04:06:02;;;;;;;6.93;1.30;;;24.80;99.90;;;;;;5079413;28;20040;-71
2022/01/13 04:08:31;;;;;;;8.48;1.20;;;24.60;99.90;;;;;;5075788;28;20032;-72
2022/01/13 04:11:07;;;;;;;5.82;1.02;;;24.30;99.90;;;;;;5078494;28;20472;-70
2022/01/13 04:13:57;;;;;;;3.05;0.77;;;24.10;99.90;;;;;;5080285;28;21023;-69
2022/01/13 04:16:29;;;;;;;7.60;1.17;;;24.00;99.90;;;;;;5082823;28;20058;-74
2022/01/13 04:19:03;;;;;;;6.82;1.23;;;23.90;99.90;;;;;;5080835;28;20116;-76
2022/01/13 04:21:32;;;;;;;4.85;0.73;;;23.90;99.90;;;;;;5076151;28;20032;-74
2022/01/13 04:23:59;;;;;;;6.22;0.98;;;23.80;99.90;;;;;;5080672;28;20388;-75
2022/01/13 04:26:32;;;;;;;7.00;1.38;;;23.70;99.90;;;;;;5082783;28;20078;-76
2022/01/13 04:29:17;;;;;;;6.13;1.67;;;23.80;99.90;;;;;;5079034;28;20028;-72
2022/01/13 04:31:50;;;;;;;7.15;1.35;;;23.70;99.90;;;;;;5079881;28;20047;-74
2022/01/13 04:34:18;;;;;;;7.22;1.00;;;23.80;99.90;;;;;;5083852;28;20587;-67
2022/01/13 04:36:46;;;;;;;8.57;1.15;;;23.80;99.90;;;;;;5081924;28;20024;-69
2022/01/13 04:39:14;;;;;;;3.90;1.30;;;23.70;99.90;;;;;;5082964;28;20036;-74
2022/01/13 04:41:46;;;;;;;8.45;1.23;;;23.60;99.90;;;;;;5084308;28;20016;-73
2022/01/13 04:44:18;;;;;;;6.35;1.55;;;23.70;99.90;;;;;;5083255;28;20068;-70
2022/01/13 04:46:47;;;;;;;5.25;1.23;;;23.80;99.90;;;;;;5075558;28;20024;-74
2022/01/13 04:49:16;;;;;;;8.23;1.20;;;23.90;99.90;;;;;;5080292;28;20021;-73
2022/01/13 04:51:43;;;;;;;5.65;1.00;;;23.90;99.90;;;;;;5075301;28;20020;-73
2022/01/13 04:54:11;;;;;;;4.70;0.90;;;23.90;99.90;;;;;;5081327;28;20081;-74
2022/01/13 04:57:21;;;;;;;6.35;1.20;;;23.90;99.90;;;;;;5081611;28;20093;-74
2022/01/13 04:59:29;;;;;;;6.13;1.00;;;23.90;99.90;;;;;;5073768;28;20036;-76
2022/01/13 05:02:00;;;;;;;5.35;1.50;;;24.00;99.90;;;;;;5080127;28;20020;-71
2022/01/13 05:04:27;;;;;;;7.63;1.77;;;24.10;99.90;;;;;;5079140;28;20377;-73
2022/01/13 05:06:55;;;;;;;9.65;1.80;;;24.20;99.90;;;;;;5077769;28;20073;-72
2022/01/13 05:09:22;;;;;;;8.50;1.00;;;24.30;99.90;;;;;;5078275;28;20032;-73
2022/01/13 05:11:49;;;;;;;3.92;1.23;;;24.50;99.90;;;;;;5077461;28;20044;-72
2022/01/13 05:14:17;;;;;;;8.52;1.80;;;24.60;99.90;;;;;;5080150;28;20027;-71
2022/01/13 05:19:38;;;;;;;5.72;1.00;;;25.00;99.90;;;;;;5081298;28;20442;-70
2022/01/13 05:24:38;;;;;;;6.22;1.30;;;25.10;99.90;;;;;;5080583;28;20028;-72
2022/01/13 05:27:06;;;;;;;6.25;1.55;;;25.20;99.90;;;;;;5078670;28;20025;-71
2022/01/13 05:29:33;;;;;;;5.22;0.80;;;25.30;99.90;;;;;;5081068;28;20052;-72
2022/01/13 05:32:01;;;;;;;3.95;0.65;;;25.20;99.90;;;;;;5076816;28;20135;-74
2022/01/13 05:34:28;;;;;;;5.32;0.80;;;25.00;99.90;;;;;;5080155;28;20464;-74
2022/01/13 05:36:55;;;;;;;4.38;0.88;;;25.00;99.90;;;;;;5077252;28;20389;-74
2022/01/13 05:39:22;;;;;;;5.43;1.08;;;25.00;99.90;;;;;;5080319;28;20029;-73
2022/01/13 05:41:50;;;;;;;3.80;0.90;;;24.90;99.90;;;;;;5079371;28;20017;-72
2022/01/13 05:44:18;;;;;;;4.63;1.33;;;24.90;99.90;;;;;;5077884;28;20020;-72
2022/01/13 05:46:45;;;;;;;6.03;0.80;;;24.80;99.90;;;;;;5080994;28;20071;-76
2022/01/13 05:49:13;;;;;;;4.60;1.02;;;24.80;99.90;;;;;;5076888;28;20055;-73
2022/01/13 05:51:40;;;;;;;3.65;0.60;;;24.80;99.90;;;;;;5077829;28;20016;-69
2022/01/13 05:54:07;;;;;;;8.45;0.75;;;24.90;99.90;;;;;;5076681;28;20031;-72
2022/01/13 05:56:34;;;;;;;5.03;0.70;;;24.90;99.90;;;;;;5072637;28;20085;-70
2022/01/13 05:59:02;;;;;;;3.75;0.57;;;25.00;99.90;;;;;;5072971;28;20370;-70
2022/01/13 06:01:29;;;;;;;5.15;0.80;;;25.10;99.90;;;;;;5073082;28;20114;-69
2022/01/13 06:03:56;;;;;;;3.58;1.17;;;25.10;99.90;;;;;;5073247;28;20024;-70
2022/01/13 06:06:24;;;;;;;6.05;0.73;;;25.20;99.90;;;;;;5073128;28;20023;-70
2022/01/13 06:08:51;;;;;;;6.57;0.88;;;25.30;99.90;;;;;;5072823;28;20028;-71
2022/01/13 06:11:22;;;;;;;5.72;0.95;;;25.30;99.90;;;;;;5070851;28;20029;-72
2022/01/13 06:13:50;;;;;;;6.32;0.63;;;25.30;99.90;;;;;;5073121;28;20429;-71
2022/01/13 06:16:17;;;;;;;4.68;0.93;;;25.30;99.90;;;;;;5072643;28;20020;-71
2022/01/13 06:18:44;;;;;;;2.70;0.90;;;25.20;99.90;;;;;;5072892;28;20079;-69
2022/01/13 06:21:12;;;;;;;5.25;1.10;;;25.10;99.90;;;;;;5073197;28;20016;-71
2022/01/13 06:23:39;;;;;;;3.70;0.55;;;25.00;99.90;;;;;;5072973;28;20530;-70
2022/01/13 06:26:06;;;;;;;3.22;0.60;;;24.90;99.90;;;;;;5073381;28;20025;-71
2022/01/13 06:28:34;;;;;;;6.13;1.40;;;24.80;99.90;;;;;;5071737;28;20063;-71
2022/01/13 06:31:01;;;;;;;3.83;1.00;;;24.80;99.90;;;;;;5072664;28;20552;-70
2022/01/13 06:33:29;;;;;;;6.35;1.80;;;24.80;99.90;;;;;;5072623;28;20036;-70
2022/01/13 06:35:56;;;;;;;7.43;2.17;;;24.60;99.90;;;;;;5072313;28;20024;-70
2022/01/13 06:38:27;;;;;;;2.95;0.80;;;24.60;99.90;;;;;;5071686;28;20053;-71
2022/01/13 06:40:54;;;;;;;4.30;1.08;;;24.50;99.90;;;;;;5072768;28;20044;-71
2022/01/13 06:43:21;;;;;;;6.25;1.60;;;24.50;99.90;;;;;;5072245;28;20025;-71
2022/01/13 06:45:49;;;;;;;4.80;0.75;;;24.50;99.90;;;;;;5072623;28;20020;-70
2022/01/13 06:48:16;;;;;;;4.05;0.80;;;24.50;99.90;;;;;;5072646;28;20082;-71
2022/01/13 06:50:43;;;;;;;4.70;1.42;;;24.60;99.90;;;;;;5072160;28;20073;-71
2022/01/13 06:53:11;;;;;;;7.28;1.77;;;24.60;99.90;;;;;;5072362;28;20048;-71
2022/01/13 06:55:38;;;;;;;6.57;1.00;;;24.60;99.90;;;;;;5072277;28;20047;-71
2022/01/13 06:58:05;;;;;;;6.60;1.58;;;24.70;99.90;;;;;;5072224;28;20042;-70
2022/01/13 07:00:33;;;;;;;3.70;0.80;;;24.70;99.90;;;;;;5070806;28;20455;-71
2022/01/13 07:03:03;;;;;;;3.15;0.80;;;24.80;99.90;;;;;;5070628;28;20029;-70
2022/01/13 07:05:30;;;;;;;6.13;1.40;;;24.80;99.90;;;;;;5071953;28;20107;-72
2022/01/13 07:07:58;;;;;;;4.53;0.93;;;24.80;99.90;;;;;;5071933;28;20088;-70
2022/01/13 07:10:25;;;;;;;2.65;0.55;;;24.70;99.90;;;;;;5071948;28;20021;-71
2022/01/13 07:12:52;;;;;;;5.30;1.33;;;24.70;99.90;;;;;;5071831;28;20021;-71
2022/01/13 07:15:21;;;;;;;5.47;1.52;;;24.70;99.90;;;;;;5072254;28;20034;-71
2022/01/13 07:17:48;;;;;;;5.90;1.15;;;24.70;99.90;;;;;;5072151;28;20032;-70
2022/01/13 07:20:16;;;;;;;6.82;1.33;;;24.70;99.90;;;;;;5066784;28;20111;-72
2022/01/13 07:22:43;;;;;;;7.20;1.02;;;24.80;99.90;;;;;;5072144;28;20028;-71
2022/01/13 07:25:11;;;;;;;7.18;1.20;;;24.90;99.90;;;;;;5072178;28;20028;-71
2022/01/13 07:27:39;;;;;;;5.47;1.05;;;25.10;99.90;;;;;;5071859;28;20017;-71
2022/01/13 07:30:08;;;;;;;3.40;1.17;;;25.10;99.90;;;;;;5071629;28;20541;-71
2022/01/13 07:32:35;;;;;;;3.17;0.88;;;25.20;99.90;;;;;;5071910;28;20047;-71
2022/01/13 07:35:03;;;;;;;5.18;0.88;;;25.20;99.90;;;;;;5072092;28;20040;-69
2022/01/13 07:37:31;;;;;;;4.95;1.05;;;25.20;99.90;;;;;;5071424;28;20020;-71
2022/01/13 07:40:01;;;;;;;2.97;0.60;;;25.10;99.90;;;;;;5071481;28;20044;-71
2022/01/13 07:42:29;;;;;;;2.47;0.98;;;25.00;99.90;;;;;;5070406;28;20174;-73
2022/01/13 07:44:56;;;;;;;3.53;0.60;;;25.00;99.90;;;;;;5071865;28;20113;-71
2022/01/13 07:47:23;;;;;;;4.93;0.80;;;25.00;99.90;;;;;;5052372;28;20138;-71
2022/01/13 07:49:51;;;;;;;5.38;0.95;;;24.90;99.90;;;;;;5051178;28;20013;-72
2022/01/13 07:52:18;;;;;;;5.15;0.75;;;24.80;99.90;;;;;;5051559;28;20044;-70
2022/01/13 07:54:45;;;;;;;4.13;0.80;;;24.80;99.90;;;;;;5051633;28;20024;-71
2022/01/13 07:57:12;;;;;;;4.95;1.20;;;24.70;99.90;;;;;;5051580;28;20032;-71
2022/01/13 07:59:40;;;;;;;4.32;1.73;;;24.60;99.90;;;;;;5051102;28;20118;-72
2022/01/13 08:02:07;;;;;;;7.95;2.88;;;24.50;99.90;;;;;;5051248;28;20017;-71
2022/01/13 08:04:35;;;;;;;6.45;2.05;;;24.40;99.90;;;;;;5051824;28;20029;-71
2022/01/13 08:07:02;;;;;;;6.28;1.70;;;24.30;99.90;;;;;;5062667;28;20020;-72
2022/01/13 08:09:29;;;;;;;5.57;1.50;;;24.30;99.90;;;;;;5062542;28;20021;-71
2022/01/13 08:11:56;;;;;;;4.55;0.95;;;24.20;99.90;;;;;;5051340;28;20029;-70
2022/01/13 08:14:24;;;;;;;6.68;1.08;;;24.10;99.90;;;;;;5051364;28;20071;-71
2022/01/13 08:16:56;;;;;;;5.28;0.90;;;24.00;99.90;;;;;;5051183;28;20504;-71
2022/01/13 08:22:08;;;;;;;5.82;1.25;;;23.90;99.90;;;;;;5051481;28;20128;-71
2022/01/13 08:24:35;;;;;;;5.90;1.20;;;23.80;99.90;;;;;;5051359;28;20067;-71
2022/01/13 08:27:03;;;;;;;6.43;1.13;;;23.80;99.90;;;;;;5051170;28;20025;-71
2022/01/13 08:29:30;;;;;;;7.90;1.73;;;23.70;99.90;;;;;;5050794;28;20060;-71
2022/01/13 08:31:58;;;;;;;5.25;0.95;;;23.70;99.90;;;;;;5051188;28;20049;-72
2022/01/13 08:34:25;;;;;;;7.65;1.02;;;23.70;99.90;;;;;;5050914;28;20053;-70
2022/01/13 08:36:53;;;;;;;4.88;1.15;;;23.70;99.90;;;;;;5050140;28;20028;-70
2022/01/13 08:39:21;;;;;;;5.63;1.00;;;23.60;99.90;;;;;;5051037;28;20115;-70
2022/01/13 08:41:49;;;;;;;6.47;2.05;;;23.60;99.90;;;;;;5050935;28;20466;-72
2022/01/13 08:44:17;;;;;;;4.30;1.60;;;23.50;99.90;;;;;;5050956;28;20086;-72
2022/01/13 08:46:44;;;;;;;3.42;0.90;;;23.40;99.90;;;;;;5050811;28;20017;-71
2022/01/13 08:49:12;;;;;;;6.88;1.20;;;23.40;99.90;;;;;;5051099;28;20021;-71
2022/01/13 08:51:39;;;;;;;9.30;1.70;;;23.30;99.90;;;;;;5051226;28;20543;-71
2022/01/13 08:54:06;;;;;;;7.57;1.30;;;23.30;99.90;;;;;;5051090;28;20021;-70
2022/01/13 08:56:34;;;;;;;5.07;1.10;;;23.20;99.90;;;;;;5051384;28;20029;-71
2022/01/13 08:59:01;;;;;;;10.75;5.07;;;23.20;99.90;;;;;;5052933;28;20040;-71
2022/01/13 09:01:30;;;;;;;8.85;3.95;;;23.20;99.90;;;;;;5054986;28;20382;-71
2022/01/13 09:03:59;;;;;;;8.95;3.78;;;23.10;99.90;;;;;;5054596;28;20049;-70
2022/01/13 09:06:26;;;;;;;7.38;2.13;;;23.10;99.90;;;;;;5054127;28;20031;-71
2022/01/13 09:08:54;;;;;;;5.32;1.40;;;23.10;99.90;;;;;;5054484;28;20104;-71
2022/01/13 09:11:21;;;;;;;6.93;1.48;;;23.00;99.90;;;;;;5054156;28;20104;-70
2022/01/13 09:13:56;;;;;;;7.07;1.40;;;23.00;99.90;;;;;;5054280;28;20040;-72
2022/01/13 09:16:27;;;;;;;11.02;1.65;;;22.90;99.90;;;;;;5054310;28;20106;-70
2022/01/13 09:21:23;;;;;;;7.97;1.98;;;22.90;99.90;;;;;;5053748;28;20113;-70
2022/01/13 09:23:51;;;;;;;11.00;2.13;;;22.80;99.90;;;;;;5053954;28;20104;-71
2022/01/13 09:26:18;;;;;;;8.38;2.35;;;22.80;99.90;;;;;;5053862;28;20481;-69
2022/01/13 09:28:46;;;;;;;9.32;2.90;;;22.70;99.90;;;;;;5053696;28;20025;-71
2022/01/13 09:31:13;;;;;;;7.05;1.55;;;22.70;99.90;;;;;;5053553;28;20037;-70
2022/01/13 09:33:41;;;;;;;9.65;1.58;;;22.70;99.90;;;;;;5053815;28;20078;-71
2022/01/13 09:36:08;;;;;;;9.90;1.60;;;22.70;99.90;;;;;;5053536;28;20065;-69
2022/01/13 09:38:36;;;;;;;9.07;1.77;;;22.70;99.90;;;;;;5053038;28;20048;-70
2022/01/13 09:41:04;;;;;;;8.32;1.63;;;22.80;99.90;;;;;;5062828;28;20021;-71
2022/01/13 09:43:31;;;;;;;8.23;1.85;;;22.70;99.90;;;;;;5073657;28;20507;-73
2022/01/13 09:45:59;;;;;;;6.72;1.33;;;22.70;99.90;;;;;;5064910;28;20052;-71
2022/01/13 09:48:28;;;;;;;6.57;1.05;;;22.70;99.90;;;;;;5053760;28;20439;-70
2022/01/13 09:50:56;;;;;;;8.57;1.17;;;22.70;99.90;;;;;;5053693;28;20023;-71
2022/01/13 09:53:23;;;;;;;6.68;2.40;;;22.80;99.90;;;;;;5053753;28;20057;-73
2022/01/13 09:55:51;;;;;;;8.70;1.23;;;22.80;99.90;;;;;;5053812;28;20020;-70
2022/01/13 09:58:18;;;;;;;6.18;1.00;;;22.80;99.90;;;;;;5053503;28;20041;-71
2022/01/13 10:00:46;;;;;;;13.80;3.55;;;22.80;99.90;;;;;;5053564;28;20101;-71
2022/01/13 10:03:23;;;;;;;8.25;1.38;;;22.80;99.90;;;;;;5053217;28;20470;-70
2022/01/13 10:05:53;;;;;;;8.98;1.20;;;22.70;99.90;;;;;;5053405;28;20028;-71
2022/01/13 10:08:47;;;;;;;11.43;1.85;;;22.70;99.90;;;;;;5053264;28;20020;-71
2022/01/13 10:11:39;;;;;;;5.53;1.92;;;22.70;99.90;;;;;;5046670;28;20056;-71
2022/01/13 10:16:23;;;;;;;5.78;1.00;;;22.70;99.90;;;;;;5052861;28;20408;-71
2022/01/13 10:17:16;;;;;;;8.82;1.80;;;22.70;99.90;;;;;;5053126;28;20372;-71
2022/01/13 10:19:56;;;;;;;10.07;2.25;;;22.60;99.90;;;;;;5053237;28;20045;-72
2022/01/13 10:22:33;;;;;;;12.35;1.52;;;22.60;99.90;;;;;;5051685;28;20465;-71
2022/01/13 10:25:00;;;;;;;7.90;1.67;;;22.60;99.90;;;;;;5051597;28;20052;-71
2022/01/13 10:27:33;;;;;;;11.68;2.08;;;22.50;99.90;;;;;;5053488;28;20021;-70
2022/01/13 10:30:22;;;;;;;8.50;1.48;;;22.50;99.90;;;;;;5053122;28;20017;-71
2022/01/13 10:32:49;;;;;;;9.40;2.30;;;22.50;99.90;;;;;;5052838;28;20441;-71
2022/01/13 10:35:20;;;;;;;6.88;1.48;;;22.50;99.90;;;;;;5052942;28;20021;-71
2022/01/13 10:37:57;;;;;;;6.28;1.60;;;22.50;99.90;;;;;;5052870;28;20112;-71
2022/01/13 10:40:29;;;;;;;14.43;2.50;;;22.50;99.90;;;;;;5053031;28;20028;-71
2022/01/13 10:45:38;;;;;;;15.43;1.63;;;22.50;99.90;;;;;;5052673;28;20025;-71
2022/01/13 10:48:24;;;;;;;8.93;1.90;;;22.50;99.90;;;;;;5052418;28;20031;-71
2022/01/13 10:50:58;;;;;;;11.18;1.80;;;22.50;99.90;;;;;;5052577;28;20028;-71
2022/01/13 10:53:31;;;;;;;9.27;1.83;;;22.50;99.90;;;;;;5052770;28;20021;-71
2022/01/13 10:56:01;;;;;;;10.52;1.40;;;22.60;99.90;;;;;;5052984;28;20029;-70
2022/01/13 10:58:41;;;;;;;8.48;2.10;;;22.60;99.90;;;;;;5052392;28;20488;-71
2022/01/13 11:01:14;;;;;;;13.45;2.05;;;22.60;99.90;;;;;;5052227;28;20036;-71
2022/01/13 11:03:44;;;;;;;6.63;1.42;;;22.60;99.90;;;;;;5052193;28;20032;-71
2022/01/13 11:06:13;;;;;;;13.05;2.42;;;22.60;99.90;;;;;;5052065;28;20039;-72
2022/01/13 11:08:48;;;;;;;9.15;1.50;;;22.70;99.90;;;;;;5052533;28;20025;-70
2022/01/13 11:11:21;;;;;;;10.77;1.33;;;22.70;99.90;;;;;;5052245;28;20098;-71
2022/01/13 11:14:00;;;;;;;10.25;2.28;;;22.70;99.90;;;;;;5052208;28;20469;-70
2022/01/13 11:16:29;;;;;;;8.50;1.40;;;22.70;99.90;;;;;;5051849;28;20025;-70
2022/01/13 11:18:59;;;;;;;8.20;2.17;;;22.70;99.90;;;;;;5051707;28;20037;-70
2022/01/13 11:21:30;;;;;;;9.40;1.30;;;22.70;99.90;;;;;;5051140;28;20486;-71
2022/01/13 11:23:59;;;;;;;8.40;1.30;;;22.70;99.90;;;;;;5051346;28;20055;-71
2022/01/13 11:26:27;;;;;;;8.07;1.02;;;22.70;99.90;;;;;;5051926;28;20017;-69
2022/01/13 11:29:04;;;;;;;10.98;1.80;;;22.60;99.90;;;;;;5051765;28;20359;-71
2022/01/13 11:31:31;;;;;;;6.03;1.25;;;22.60;99.90;;;;;;5051404;28;20481;-71
2022/01/13 11:34:00;;;;;;;7.65;1.25;;;22.50;99.90;;;;;;5051880;28;20085;-70
2022/01/13 11:36:28;;;;;;;6.32;1.27;;;22.50;99.90;;;;;;5051846;28;20017;-72
2022/01/13 11:38:58;;;;;;;6.38;1.50;;;22.50;99.90;;;;;;5051630;28;20033;-71
2022/01/13 11:41:25;;;;;;;9.43;1.40;;;22.50;99.90;;;;;;5051845;28;20025;-71
2022/01/13 11:43:54;;;;;;;10.25;1.60;;;22.40;99.90;;;;;;5052009;28;20025;-70
2022/01/13 11:46:26;;;;;;;8.32;1.73;;;22.40;99.90;;;;;;5051787;28;20014;-72
2022/01/13 11:49:18;;;;;;;11.75;1.95;;;22.50;99.90;;;;;;5051516;28;20021;-70
2022/01/13 11:52:01;;;;;;;8.70;1.80;;;22.40;99.90;;;;;;5051273;28;20023;-70
2022/01/13 11:54:34;;;;;;;8.10;2.15;;;22.40;99.90;;;;;;5051577;28;20021;-70
2022/01/13 11:57:35;;;;;;;9.30;1.65;;;22.40;99.90;;;;;;5051608;28;20025;-70
2022/01/13 12:00:03;;;;;;;7.97;2.53;;;22.50;99.90;;;;;;5040521;28;20057;-70
2022/01/13 12:02:41;;;;;;;6.47;1.30;;;22.50;99.90;;;;;;5051567;28;20017;-71
2022/01/13 12:05:20;;;;;;;6.85;1.75;;;22.50;99.90;;;;;;5051713;28;20021;-69
2022/01/13 12:07:55;;;;;;;8.27;1.48;;;22.50;99.90;;;;;;5050075;28;20120;-71
2022/01/13 12:10:22;;;;;;;8.80;1.40;;;22.50;99.90;;;;;;5051630;28;20016;-70
2022/01/13 12:12:49;;;;;;;7.55;1.48;;;22.50;99.90;;;;;;5051626;28;20032;-69
2022/01/13 12:15:21;;;;;;;5.60;1.27;;;22.50;99.90;;;;;;5051746;28;20027;-70
2022/01/13 12:17:49;;;;;;;;;;;22.40;99.90;;;;;;5051934;28;20060;-68
2022/01/13 12:20:21;;;;;;;7.70;1.23;;;22.40;99.90;;;;;;5051110;28;20357;-70
2022/01/13 12:23:30;;;;;;;9.27;2.15;;;22.30;99.90;;;;;;5051523;28;20406;-70
2022/01/13 12:25:39;;;;;;;7.78;2.08;;;22.20;99.90;;;;;;5045798;28;20037;-69
2022/01/13 12:28:20;;;;;;;6.65;1.42;;;22.20;99.90;;;;;;5051536;28;20279;-69
2022/01/13 12:30:49;;;;;;;10.40;1.95;;;22.10;99.90;;;;;;5050963;28;20060;-71
2022/01/13 12:33:31;;;;;;;13.02;2.08;;;22.10;99.90;;;;;;5050836;28;20436;-69
2022/01/13 12:35:59;;;;;;;9.45;2.58;;;22.10;99.90;;;;;;5055175;28;20028;-70
2022/01/13 12:38:27;;;;;;;10.40;2.20;;;22.10;99.90;;;;;;5054779;28;20078;-69
2022/01/13 12:41:04;;;;;;;8.60;1.77;;;22.10;99.90;;;;;;5055228;28;20032;-70
2022/01/13 12:46:19;;;;;;;21.27;3.05;;;22.10;99.90;;;;;;5055159;28;20025;-69
2022/01/13 12:48:51;;;;;;;10.98;1.70;;;22.10;99.90;;;;;;5054636;28;20075;-70
2022/01/13 12:51:20;;;;;;;6.97;1.60;;;22.10;99.90;;;;;;5054849;28;20048;-70
2022/01/13 12:53:49;;;;;;;9.18;2.13;;;22.10;99.90;;;;;;5054768;28;20104;-70
2022/01/13 12:56:20;;;;;;;11.05;2.88;;;22.20;99.90;;;;;;5055207;28;20023;-70
2022/01/13 12:58:50;;;;;;;15.80;3.35;;;22.10;99.90;;;;;;5054773;28;20470;-70
2022/01/13 13:01:24;;;;;;;14.65;3.25;;;22.10;99.90;;;;;;5055013;28;20579;-69
2022/01/13 13:04:00;;;;;;;11.43;3.20;;;22.10;99.90;;;;;;5054884;28;20025;-71
2022/01/13 13:06:28;;;;;;;9.40;2.28;;;22.10;99.90;;;;;;5054099;28;20033;-72
2022/01/13 13:09:04;;;;;;;5.65;2.00;;;22.10;99.90;;;;;;5054306;28;20104;-70
2022/01/13 13:11:32;;;;;;;7.88;1.90;;;22.10;99.90;;;;;;5052500;28;20022;-71
2022/01/13 13:14:00;;;;;;;9.00;1.70;;;22.10;99.90;;;;;;5052571;28;20068;-71
2022/01/13 13:16:29;;;;;;;10.05;1.95;;;22.10;99.90;;;;;;5052240;28;20013;-70
2022/01/13 13:18:56;;;;;;;9.55;3.00;;;22.10;99.90;;;;;;5052360;28;20086;-70
2022/01/13 13:21:28;;;;;;;10.55;1.50;;;22.10;99.90;;;;;;5052485;28;20028;-70
2022/01/13 13:23:56;;;;;;;6.90;1.42;;;22.10;99.90;;;;;;5052433;28;20028;-70
2022/01/13 13:26:23;;;;;;;9.55;1.77;;;22.10;99.90;;;;;;5053722;28;20025;-70
2022/01/13 13:28:54;;;;;;;9.82;2.45;;;22.10;99.90;;;;;;5054264;28;20409;-71
2022/01/13 13:31:27;;;;;;;10.40;2.10;;;22.10;99.90;;;;;;5054101;28;20037;-70
2022/01/13 13:34:15;;;;;;;10.05;2.00;;;22.10;99.90;;;;;;5054378;28;20035;-70